Time;durP1;ratioP1;P1;durP2;ratioP2;P2;SDS_P1;SDS_P2;PMS_P1;PMS_P2;Temp;Humidity;BMP_temperature;BMP_pressure;BME280_temperature;BME280_humidity;BME280_pressure;Samples;Min_cycle;Max_cycle;Signal;HPM_P1;HPM_P2
2023/04/20 00:01:54;;;;;;;11.07;3.90;;;7.60;99.90;;;;;;5015134;28;206999;-67
2023/04/20 00:04:21;;;;;;;11.18;3.60;;;7.70;99.90;;;;;;5076037;28;20086;-66
2023/04/20 00:06:48;;;;;;;9.57;3.50;;;7.70;99.90;;;;;;5011064;28;212688;-67
2023/04/20 00:09:14;;;;;;;9.73;4.00;;;7.70;99.90;;;;;;5079452;28;20051;-67
2023/04/20 00:11:40;;;;;;;9.57;3.50;;;7.80;99.90;;;;;;5010939;28;230265;-67
2023/04/20 00:14:07;;;;;;;9.07;3.20;;;7.80;99.90;;;;;;5073426;28;20060;-67
2023/04/20 00:16:33;;;;;;;10.05;3.28;;;7.80;99.90;;;;;;5023192;28;230739;-67
2023/04/20 00:18:59;;;;;;;8.95;3.45;;;7.70;99.90;;;;;;5057510;28;20052;-66
2023/04/20 00:21:26;;;;;;;12.55;3.28;;;7.70;99.90;;;;;;5016506;28;215547;-67
2023/04/20 00:23:52;;;;;;;9.77;3.10;;;7.80;99.90;;;;;;5025504;28;20048;-66
2023/04/20 00:26:20;;;;;;;10.17;3.43;;;7.80;99.90;;;;;;5004611;28;208857;-66
2023/04/20 00:28:46;;;;;;;11.13;3.30;;;7.90;99.90;;;;;;5077641;28;20518;-68
2023/04/20 00:31:12;;;;;;;9.18;3.17;;;7.90;99.90;;;;;;5014329;28;214590;-67
2023/04/20 00:33:38;;;;;;;14.60;3.08;;;7.90;99.90;;;;;;5045428;28;20068;-67
2023/04/20 00:36:04;;;;;;;9.48;2.70;;;7.90;99.90;;;;;;5035876;28;217216;-68
2023/04/20 00:38:30;;;;;;;10.40;3.00;;;7.90;99.90;;;;;;5020160;28;208980;-67
2023/04/20 00:40:57;;;;;;;8.82;2.78;;;7.90;99.90;;;;;;5072842;28;20075;-69
2023/04/20 00:43:23;;;;;;;11.88;2.90;;;8.00;99.80;;;;;;4990430;28;209701;-67
2023/04/20 00:45:51;;;;;;;10.60;2.63;;;7.90;99.80;;;;;;5067327;28;20055;-66
2023/04/20 00:48:17;;;;;;;14.23;2.95;;;8.00;99.90;;;;;;5033962;28;236160;-67
2023/04/20 00:50:47;;;;;;;8.27;2.60;;;8.00;99.90;;;;;;5076568;28;20079;-67
2023/04/20 00:53:14;;;;;;;11.77;2.85;;;8.00;99.90;;;;;;5023763;28;209064;-67
2023/04/20 00:55:42;;;;;;;7.72;2.40;;;8.10;99.90;;;;;;5072044;28;20056;-67
2023/04/20 00:58:11;;;;;;;11.65;2.83;;;8.10;99.90;;;;;;5009730;28;220158;-68
2023/04/20 01:00:39;;;;;;;10.55;2.80;;;8.20;99.80;;;;;;5080385;28;20434;-67
2023/04/20 01:03:07;;;;;;;10.40;2.80;;;8.20;99.80;;;;;;5007007;28;205133;-67
2023/04/20 01:05:33;;;;;;;10.77;2.55;;;8.20;99.80;;;;;;5080253;28;20044;-70
2023/04/20 01:07:59;;;;;;;10.95;2.70;;;8.20;99.80;;;;;;5013438;28;206840;-67
2023/04/20 01:10:25;;;;;;;8.63;2.60;;;8.30;99.90;;;;;;5078695;28;20475;-67
2023/04/20 01:12:51;;;;;;;9.30;2.60;;;8.20;99.90;;;;;;5028939;28;209719;-68
2023/04/20 01:15:17;;;;;;;10.38;2.58;;;8.30;99.90;;;;;;5074439;28;20051;-67
2023/04/20 01:17:44;;;;;;;10.60;2.30;;;8.30;99.80;;;;;;5019136;28;207526;-66
2023/04/20 01:20:11;;;;;;;10.07;2.63;;;8.30;99.90;;;;;;5078859;28;20359;-67
2023/04/20 01:22:48;;;;;;;9.52;2.75;;;8.40;99.90;;;;;;5019214;28;209417;-68
2023/04/20 01:25:15;;;;;;;10.55;2.90;;;8.40;99.90;;;;;;5073316;28;20056;-67
2023/04/20 01:27:41;;;;;;;9.88;2.30;;;8.40;99.90;;;;;;5037027;28;36749;-67
2023/04/20 01:30:08;;;;;;;10.57;2.55;;;8.40;99.90;;;;;;5078081;28;20419;-68
2023/04/20 01:32:34;;;;;;;10.82;2.78;;;8.40;99.90;;;;;;5016525;28;238182;-67
2023/04/20 01:35:02;;;;;;;10.50;2.42;;;8.40;99.90;;;;;;5076394;28;20056;-67
2023/04/20 01:37:28;;;;;;;9.13;2.75;;;8.40;99.90;;;;;;5009248;28;221083;-68
2023/04/20 01:39:54;;;;;;;8.93;2.67;;;8.40;99.90;;;;;;5085540;28;20512;-67
2023/04/20 01:42:21;;;;;;;10.70;3.03;;;8.40;99.90;;;;;;5011242;28;209993;-66
2023/04/20 01:44:47;;;;;;;10.20;2.55;;;8.40;99.90;;;;;;5067349;28;20049;-68
2023/04/20 01:47:13;;;;;;;10.18;2.47;;;8.40;99.90;;;;;;5024189;28;209262;-68
2023/04/20 01:49:39;;;;;;;7.43;2.20;;;8.40;99.90;;;;;;5078144;28;20052;-67
2023/04/20 01:52:06;;;;;;;12.95;2.47;;;8.40;99.90;;;;;;5022414;28;207962;-68
2023/04/20 01:54:32;;;;;;;12.93;2.72;;;8.40;99.90;;;;;;5065838;28;20044;-67
2023/04/20 01:56:58;;;;;;;9.77;2.70;;;8.30;99.90;;;;;;5001770;28;207265;-67
2023/04/20 01:59:24;;;;;;;8.90;2.60;;;8.30;99.90;;;;;;5077561;28;20048;-68
2023/04/20 02:01:50;;;;;;;10.88;2.55;;;8.20;99.90;;;;;;5018673;28;209984;-67
2023/04/20 02:04:16;;;;;;;9.55;2.30;;;8.20;99.90;;;;;;5069890;28;20598;-67
2023/04/20 02:06:42;;;;;;;11.15;2.72;;;8.20;99.90;;;;;;5003508;28;209565;-67
2023/04/20 02:09:09;;;;;;;8.77;2.53;;;8.10;99.90;;;;;;5063003;28;20066;-68
2023/04/20 02:11:35;;;;;;;10.43;2.72;;;8.10;99.90;;;;;;5008235;28;239180;-67
2023/04/20 02:14:01;;;;;;;10.65;2.65;;;8.10;99.90;;;;;;5067344;28;20047;-68
2023/04/20 02:16:29;;;;;;;8.40;2.55;;;8.00;99.90;;;;;;5010965;28;206786;-67
2023/04/20 02:18:55;;;;;;;15.05;2.80;;;7.90;99.90;;;;;;5079434;28;20040;-67
2023/04/20 02:21:21;;;;;;;10.13;2.70;;;7.80;99.90;;;;;;5017067;28;202436;-66
2023/04/20 02:23:48;;;;;;;13.35;2.88;;;7.80;99.90;;;;;;5046126;28;20052;-67
2023/04/20 02:26:15;;;;;;;9.57;2.67;;;7.70;99.90;;;;;;5010343;28;206515;-66
2023/04/20 02:28:42;;;;;;;12.50;2.78;;;7.70;99.90;;;;;;5047568;28;20056;-67
2023/04/20 02:31:08;;;;;;;11.80;3.00;;;7.70;99.90;;;;;;5011271;28;207444;-68
2023/04/20 02:33:34;;;;;;;9.50;2.53;;;7.70;99.90;;;;;;5041239;28;20434;-67
2023/04/20 02:36:00;;;;;;;8.57;2.20;;;7.70;99.90;;;;;;5048787;28;208426;-67
2023/04/20 02:38:26;;;;;;;12.50;3.08;;;7.70;99.90;;;;;;5000740;28;206243;-66
2023/04/20 02:40:52;;;;;;;10.40;2.67;;;7.60;99.90;;;;;;5076736;28;20060;-67
2023/04/20 02:43:19;;;;;;;8.70;2.50;;;7.70;99.90;;;;;;5001062;28;208225;-67
2023/04/20 02:45:45;;;;;;;13.43;2.72;;;7.70;99.90;;;;;;5051939;28;20045;-67
2023/04/20 02:48:12;;;;;;;8.55;2.25;;;7.80;99.90;;;;;;4980613;28;210776;-66
2023/04/20 02:50:38;;;;;;;11.60;2.75;;;7.90;99.90;;;;;;5075097;28;20053;-66
2023/04/20 02:53:04;;;;;;;11.07;3.00;;;7.90;99.90;;;;;;4989755;28;210233;-67
2023/04/20 02:55:30;;;;;;;8.95;2.38;;;7.90;99.90;;;;;;5049308;28;20056;-67
2023/04/20 02:57:56;;;;;;;8.63;2.60;;;7.90;99.90;;;;;;4972515;28;207040;-67
2023/04/20 03:00:23;;;;;;;12.45;3.05;;;7.90;99.90;;;;;;5052963;28;20060;-67
2023/04/20 03:02:49;;;;;;;11.80;2.78;;;8.00;99.90;;;;;;5000326;28;210721;-67
2023/04/20 03:05:15;;;;;;;9.82;2.50;;;8.00;99.90;;;;;;5056743;28;20060;-67
2023/04/20 03:07:42;;;;;;;11.43;2.60;;;8.10;99.90;;;;;;5004090;28;210003;-68
2023/04/20 03:10:08;;;;;;;9.32;2.80;;;8.10;99.90;;;;;;5056195;28;20040;-67
2023/04/20 03:12:35;;;;;;;11.38;2.63;;;8.10;99.90;;;;;;5004429;28;218040;-67
2023/04/20 03:15:06;;;;;;;10.57;2.70;;;8.10;99.90;;;;;;5056897;28;20044;-67
2023/04/20 03:17:32;;;;;;;10.98;2.80;;;8.10;99.90;;;;;;5000168;28;206506;-66
2023/04/20 03:19:58;;;;;;;9.60;2.78;;;8.20;99.90;;;;;;5050659;28;20044;-66
2023/04/20 03:22:24;;;;;;;9.20;2.70;;;8.20;99.90;;;;;;4997734;28;206057;-68
2023/04/20 03:24:51;;;;;;;9.35;2.47;;;8.20;99.90;;;;;;5058675;28;20049;-66
2023/04/20 03:27:17;;;;;;;8.60;2.53;;;8.20;99.90;;;;;;4998093;28;208917;-67
2023/04/20 03:29:43;;;;;;;8.65;2.30;;;8.30;99.90;;;;;;5047031;28;20048;-67
2023/04/20 03:32:09;;;;;;;11.57;2.40;;;8.30;99.90;;;;;;5006308;28;222709;-67
2023/04/20 03:34:35;;;;;;;10.00;2.95;;;8.30;99.90;;;;;;5062079;28;20032;-67
2023/04/20 03:37:01;;;;;;;9.38;2.65;;;8.30;99.90;;;;;;5016268;28;210495;-67
2023/04/20 03:39:27;;;;;;;9.52;2.60;;;8.30;99.70;;;;;;5066995;28;20067;-68
2023/04/20 03:41:53;;;;;;;9.77;2.55;;;8.30;99.70;;;;;;5021353;28;208263;-66
2023/04/20 03:44:19;;;;;;;10.27;2.72;;;8.20;99.40;;;;;;5074100;28;20063;-67
2023/04/20 03:46:46;;;;;;;8.68;2.80;;;8.20;99.50;;;;;;5011240;28;209828;-67
2023/04/20 03:49:12;;;;;;;10.52;2.65;;;8.20;99.50;;;;;;5077981;28;20070;-67
2023/04/20 03:51:38;;;;;;;11.27;3.10;;;8.20;99.30;;;;;;5021385;28;211829;-67
2023/04/20 03:54:05;;;;;;;11.30;2.58;;;8.20;99.10;;;;;;5069469;28;20052;-67
2023/04/20 03:56:36;;;;;;;9.48;2.53;;;8.30;99.20;;;;;;4995499;28;245096;-68
2023/04/20 03:59:03;;;;;;;8.15;2.40;;;8.30;99.20;;;;;;5055622;28;20418;-68
2023/04/20 04:01:29;;;;;;;8.18;2.30;;;8.30;98.90;;;;;;5022721;28;211202;-68
2023/04/20 04:03:55;;;;;;;9.73;2.97;;;8.30;98.70;;;;;;5074116;28;20056;-68
2023/04/20 04:06:24;;;;;;;11.02;2.75;;;8.40;98.90;;;;;;5010028;28;232123;-67
2023/04/20 04:08:50;;;;;;;8.25;2.45;;;8.40;98.90;;;;;;5081372;28;20052;-67
2023/04/20 04:11:37;;;;;;;10.02;2.60;;;8.40;98.80;;;;;;5029960;28;211243;-68
2023/04/20 04:14:06;;;;;;;10.35;2.47;;;8.40;98.80;;;;;;5061298;28;20052;-66
2023/04/20 04:16:32;;;;;;;11.98;2.72;;;8.40;98.60;;;;;;5004830;28;233083;-67
2023/04/20 04:18:59;;;;;;;9.98;2.90;;;8.40;98.80;;;;;;5082003;28;20059;-68
2023/04/20 04:21:27;;;;;;;11.23;2.58;;;8.30;98.90;;;;;;5000643;28;499151;-66
2023/04/20 04:23:53;;;;;;;9.05;2.40;;;8.30;98.80;;;;;;5065165;28;20052;-67
2023/04/20 04:26:23;;;;;;;11.00;2.50;;;8.30;98.70;;;;;;5040822;28;221740;-67
2023/04/20 04:28:55;;;;;;;8.95;2.50;;;8.30;98.50;;;;;;5052276;28;197293;-67
2023/04/20 04:31:22;;;;;;;9.25;2.70;;;8.30;98.70;;;;;;5022812;28;103851;-68
2023/04/20 04:33:49;;;;;;;8.32;2.20;;;8.30;98.50;;;;;;5082456;28;20048;-67
2023/04/20 04:36:15;;;;;;;7.53;2.07;;;8.30;98.40;;;;;;5015176;28;210258;-69
2023/04/20 04:38:43;;;;;;;12.77;2.20;;;8.30;97.80;;;;;;5059004;28;20392;-68
2023/04/20 04:41:16;;;;;;;9.27;2.22;;;8.30;98.00;;;;;;5041703;27;155182;-66
2023/04/20 04:43:42;;;;;;;8.73;2.13;;;8.40;97.80;;;;;;5012697;28;241280;-67
2023/04/20 04:46:09;;;;;;;10.38;2.10;;;8.40;97.80;;;;;;5034669;28;210134;-66
2023/04/20 04:48:37;;;;;;;10.57;2.40;;;8.30;98.10;;;;;;5048121;28;20039;-65
2023/04/20 04:51:03;;;;;;;8.68;2.40;;;8.30;98.50;;;;;;5056970;28;211023;-66
2023/04/20 04:53:29;;;;;;;10.57;2.40;;;8.30;98.40;;;;;;4997516;28;20056;-66
2023/04/20 04:55:55;;;;;;;8.65;2.33;;;8.30;98.30;;;;;;5071614;28;20128;-66
2023/04/20 04:58:21;;;;;;;10.32;2.53;;;8.20;98.80;;;;;;5006106;28;207602;-67
2023/04/20 05:00:49;;;;;;;12.05;3.28;;;8.10;99.90;;;;;;5066286;28;20059;-68
2023/04/20 05:03:15;;;;;;;12.38;2.65;;;7.90;99.90;;;;;;5004525;28;219434;-66
2023/04/20 05:05:41;;;;;;;8.52;2.25;;;7.80;99.90;;;;;;5073659;28;20048;-67
2023/04/20 05:08:07;;;;;;;10.02;2.40;;;7.70;99.90;;;;;;5002493;28;242902;-67
2023/04/20 05:10:34;;;;;;;9.23;2.70;;;7.70;99.90;;;;;;5061770;28;20060;-66
2023/04/20 05:13:00;;;;;;;10.95;2.63;;;7.60;99.90;;;;;;5006893;28;207154;-67
2023/04/20 05:15:26;;;;;;;9.40;2.55;;;7.70;99.90;;;;;;5063708;28;20071;-67
2023/04/20 05:17:52;;;;;;;13.60;2.70;;;7.60;99.90;;;;;;4992584;28;209313;-67
2023/04/20 05:20:19;;;;;;;8.90;2.50;;;7.60;99.90;;;;;;5061739;28;20056;-69
2023/04/20 05:22:45;;;;;;;9.48;2.55;;;7.60;99.90;;;;;;4986115;28;229704;-68
2023/04/20 05:25:12;;;;;;;10.48;3.10;;;7.50;99.90;;;;;;5065076;28;20063;-69
2023/04/20 05:27:38;;;;;;;9.40;2.95;;;7.50;99.90;;;;;;5004767;28;212290;-69
2023/04/20 05:30:05;;;;;;;9.65;2.55;;;7.40;99.90;;;;;;5073545;28;20052;-70
2023/04/20 05:32:31;;;;;;;9.65;2.65;;;7.30;99.90;;;;;;5007176;28;206166;-69
2023/04/20 05:34:57;;;;;;;11.13;2.88;;;7.30;99.90;;;;;;5053610;28;20462;-68
2023/04/20 05:37:23;;;;;;;14.15;3.30;;;7.20;99.90;;;;;;4991249;28;221696;-70
2023/04/20 05:39:52;;;;;;;11.45;3.05;;;7.30;99.90;;;;;;5050299;28;20049;-69
2023/04/20 05:42:18;;;;;;;10.73;2.83;;;7.30;99.90;;;;;;4991789;28;158751;-69
2023/04/20 05:44:47;;;;;;;11.48;3.30;;;7.30;99.90;;;;;;5034192;28;20048;-69
2023/04/20 05:47:13;;;;;;;11.25;2.90;;;7.30;99.90;;;;;;5016605;28;208707;-70
2023/04/20 05:49:40;;;;;;;9.13;2.72;;;7.20;99.90;;;;;;5065239;28;20052;-71
2023/04/20 05:52:06;;;;;;;10.50;3.20;;;7.20;99.90;;;;;;5013669;28;207796;-70
2023/04/20 05:54:32;;;;;;;8.82;2.88;;;7.20;99.90;;;;;;5073851;28;20044;-72
2023/04/20 05:57:01;;;;;;;10.80;2.72;;;7.20;99.90;;;;;;5007431;28;213325;-71
2023/04/20 05:59:27;;;;;;;9.43;3.03;;;7.20;99.90;;;;;;5076463;28;20070;-72
2023/04/20 06:01:53;;;;;;;10.40;3.40;;;7.10;99.90;;;;;;5024290;28;206070;-71
2023/04/20 06:04:19;;;;;;;11.93;3.10;;;7.10;99.90;;;;;;5085555;28;20404;-71
2023/04/20 06:06:45;;;;;;;10.98;3.33;;;7.00;99.90;;;;;;5032424;28;212656;-70
2023/04/20 06:09:14;;;;;;;10.15;3.00;;;6.90;99.90;;;;;;5079027;28;20066;-73
2023/04/20 06:11:40;;;;;;;11.05;3.75;;;6.90;99.90;;;;;;5022510;28;207605;-67
2023/04/20 06:14:06;;;;;;;10.20;3.20;;;6.90;99.90;;;;;;5077654;28;20528;-67
2023/04/20 06:16:32;;;;;;;7.85;2.92;;;6.80;99.90;;;;;;5020433;28;207804;-68
2023/04/20 06:18:59;;;;;;;11.88;3.30;;;6.80;99.90;;;;;;5086638;28;20430;-68
2023/04/20 06:21:26;;;;;;;10.40;3.22;;;6.80;99.90;;;;;;5020796;28;213350;-66
2023/04/20 06:23:52;;;;;;;11.77;3.35;;;6.80;99.90;;;;;;5082955;28;20414;-69
2023/04/20 06:26:18;;;;;;;14.17;3.10;;;6.80;99.90;;;;;;5027807;28;207261;-69
2023/04/20 06:28:46;;;;;;;9.90;3.13;;;6.80;99.90;;;;;;5090896;28;20055;-69
2023/04/20 06:31:12;;;;;;;9.20;3.20;;;6.80;99.90;;;;;;5019798;28;211415;-68
2023/04/20 06:33:45;;;;;;;10.13;3.30;;;6.80;99.90;;;;;;5068674;28;20056;-70
2023/04/20 06:36:11;;;;;;;13.23;3.73;;;6.80;99.90;;;;;;5021761;28;210944;-69
2023/04/20 06:38:37;;;;;;;11.40;3.38;;;6.70;99.90;;;;;;5085216;28;20048;-69
2023/04/20 06:41:03;;;;;;;12.35;3.58;;;6.70;99.90;;;;;;5059662;28;212337;-68
2023/04/20 06:43:30;;;;;;;11.38;3.10;;;6.70;99.90;;;;;;5036336;28;190266;-69
2023/04/20 06:45:56;;;;;;;8.40;3.40;;;6.70;99.90;;;;;;5081257;28;20055;-69
2023/04/20 06:48:22;;;;;;;14.45;3.40;;;6.80;99.90;;;;;;5034233;28;207671;-67
2023/04/20 06:50:49;;;;;;;12.65;3.42;;;6.80;99.90;;;;;;5085742;28;20054;-69
2023/04/20 06:53:15;;;;;;;12.70;3.33;;;6.80;99.90;;;;;;4997606;28;243603;-69
2023/04/20 06:55:42;;;;;;;12.60;3.63;;;6.90;99.90;;;;;;5064353;28;20056;-69
2023/04/20 06:58:08;;;;;;;11.38;3.30;;;6.80;99.90;;;;;;4988942;28;205925;-70
2023/04/20 07:00:34;;;;;;;12.07;4.03;;;6.80;99.90;;;;;;5079163;28;20044;-71
2023/04/20 07:03:01;;;;;;;10.43;3.72;;;6.80;99.90;;;;;;5011502;28;220915;-70
2023/04/20 07:05:30;;;;;;;14.60;3.88;;;6.90;99.90;;;;;;5079872;28;20063;-72
2023/04/20 07:07:56;;;;;;;11.30;4.15;;;6.80;99.90;;;;;;4981576;28;216801;-71
2023/04/20 07:10:25;;;;;;;11.35;4.30;;;6.80;99.90;;;;;;5058002;28;20131;-70
2023/04/20 07:12:51;;;;;;;10.38;3.90;;;6.90;99.90;;;;;;5007159;28;207381;-71
2023/04/20 07:15:17;;;;;;;11.20;4.05;;;6.80;99.90;;;;;;5056639;28;20126;-70
2023/04/20 07:17:43;;;;;;;11.98;3.90;;;6.70;99.90;;;;;;4994576;28;212788;-71
2023/04/20 07:20:10;;;;;;;11.23;4.10;;;6.50;99.90;;;;;;5075488;28;20052;-70
2023/04/20 07:22:37;;;;;;;11.00;4.20;;;6.50;99.90;;;;;;5034988;28;201350;-69
2023/04/20 07:25:07;;;;;;;11.50;3.80;;;6.50;99.90;;;;;;5078143;28;20052;-70
2023/04/20 07:27:38;;;;;;;11.95;4.18;;;6.50;99.90;;;;;;5010435;28;205856;-70
2023/04/20 07:30:06;;;;;;;10.90;4.30;;;6.50;99.90;;;;;;5077844;28;20065;-70
2023/04/20 07:32:33;;;;;;;12.23;3.75;;;6.50;99.90;;;;;;4989200;28;216142;-69
2023/04/20 07:35:02;;;;;;;12.55;4.32;;;6.50;99.90;;;;;;5068006;28;20067;-70
2023/04/20 07:37:30;;;;;;;11.32;4.38;;;6.60;99.90;;;;;;5020580;28;212462;-69
2023/04/20 07:39:56;;;;;;;10.15;3.97;;;6.60;99.90;;;;;;5078424;28;20061;-68
2023/04/20 07:42:22;;;;;;;12.30;4.30;;;6.70;99.90;;;;;;4976527;28;1621089;-70
2023/04/20 07:44:48;;;;;;;10.38;4.35;;;6.70;99.90;;;;;;5086508;28;20598;-69
2023/04/20 07:47:15;;;;;;;12.02;4.38;;;6.70;99.90;;;;;;5018320;28;224297;-68
2023/04/20 07:49:42;;;;;;;11.63;4.72;;;6.80;99.90;;;;;;5073263;28;20087;-68
2023/04/20 07:52:09;;;;;;;10.68;4.25;;;6.70;99.90;;;;;;5021849;28;208812;-70
2023/04/20 07:54:35;;;;;;;10.90;4.40;;;6.80;99.90;;;;;;5077357;28;20044;-69
2023/04/20 07:57:02;;;;;;;13.02;4.15;;;6.90;99.90;;;;;;4996791;28;219704;-68
2023/04/20 07:59:29;;;;;;;12.40;4.18;;;7.00;99.90;;;;;;5044893;28;20056;-67
2023/04/20 08:02:00;;;;;;;10.45;4.15;;;7.00;99.90;;;;;;5012811;28;210675;-69
2023/04/20 08:04:26;;;;;;;9.65;3.97;;;7.00;99.90;;;;;;5059577;28;20536;-68
2023/04/20 08:06:52;;;;;;;11.75;4.80;;;7.00;99.90;;;;;;5018723;28;213106;-68
2023/04/20 08:09:19;;;;;;;13.10;4.88;;;7.10;99.90;;;;;;5082215;28;20063;-68
2023/04/20 08:11:48;;;;;;;13.30;4.40;;;7.20;99.90;;;;;;5026238;28;206613;-68
2023/04/20 08:14:14;;;;;;;9.80;4.25;;;7.20;99.90;;;;;;5076027;28;20048;-68
2023/04/20 08:16:41;;;;;;;11.35;4.78;;;7.30;99.90;;;;;;5013653;28;207591;-69
2023/04/20 08:19:09;;;;;;;9.13;4.22;;;7.30;99.90;;;;;;5073383;28;20125;-68
2023/04/20 08:21:36;;;;;;;10.40;4.38;;;7.30;99.90;;;;;;5029572;28;223756;-69
2023/04/20 08:24:03;;;;;;;12.40;4.43;;;7.40;99.90;;;;;;5085074;28;20055;-68
2023/04/20 08:26:30;;;;;;;11.07;4.30;;;7.50;99.90;;;;;;5021800;28;214051;-68
2023/04/20 08:28:57;;;;;;;12.15;4.43;;;7.60;99.90;;;;;;5087550;28;20048;-68
2023/04/20 08:31:23;;;;;;;11.17;3.97;;;7.80;99.90;;;;;;5023895;28;236230;-69
2023/04/20 08:33:49;;;;;;;12.35;3.90;;;7.70;99.90;;;;;;5083137;28;20052;-68
2023/04/20 08:36:15;;;;;;;13.63;4.27;;;7.80;99.90;;;;;;5022239;28;209642;-68
2023/04/20 08:38:41;;;;;;;9.55;3.60;;;7.90;99.90;;;;;;5075614;28;20070;-68
2023/04/20 08:41:07;;;;;;;10.43;3.67;;;7.90;99.90;;;;;;5037607;28;207794;-68
2023/04/20 08:43:35;;;;;;;11.70;3.63;;;7.70;99.90;;;;;;5083491;28;20048;-69
2023/04/20 08:46:07;;;;;;;11.85;3.80;;;7.60;99.90;;;;;;5072691;28;219352;-68
2023/04/20 08:48:37;;;;;;;9.60;4.10;;;7.50;99.90;;;;;;5018475;28;213779;-68
2023/04/20 08:51:04;;;;;;;12.68;4.28;;;7.50;99.90;;;;;;5061259;28;210608;-68
2023/04/20 08:53:31;;;;;;;10.55;4.50;;;7.50;99.90;;;;;;5046009;28;20044;-68
2023/04/20 08:55:57;;;;;;;10.43;4.28;;;7.60;99.90;;;;;;5079470;28;20057;-69
2023/04/20 08:58:24;;;;;;;9.68;3.80;;;7.60;99.90;;;;;;5009246;28;206965;-69
2023/04/20 09:00:51;;;;;;;9.55;4.00;;;7.60;99.90;;;;;;5075269;28;20051;-68
2023/04/20 09:03:17;;;;;;;10.63;4.28;;;7.60;99.90;;;;;;5024987;28;206879;-67
2023/04/20 09:05:43;;;;;;;10.27;4.35;;;7.80;99.90;;;;;;5079407;28;20044;-68
2023/04/20 09:08:10;;;;;;;10.13;4.32;;;7.80;99.90;;;;;;5004604;28;207679;-68
2023/04/20 09:10:43;;;;;;;10.45;4.68;;;7.90;99.90;;;;;;5073167;28;20068;-68
2023/04/20 09:13:21;;;;;;;10.90;4.40;;;8.10;99.90;;;;;;5020012;28;209384;-68
2023/04/20 09:15:47;;;;;;;11.30;4.68;;;8.20;99.90;;;;;;5081833;28;20059;-68
2023/04/20 09:18:14;;;;;;;13.30;4.82;;;8.20;99.90;;;;;;4991990;28;231389;-68
2023/04/20 09:20:40;;;;;;;12.02;4.68;;;8.20;99.90;;;;;;5078143;28;20059;-68
2023/04/20 09:23:10;;;;;;;10.70;5.18;;;8.20;99.90;;;;;;5002865;28;216810;-68
2023/04/20 09:25:37;;;;;;;11.15;4.65;;;8.20;99.90;;;;;;5051875;28;20057;-69
2023/04/20 09:28:03;;;;;;;9.98;4.53;;;8.20;99.90;;;;;;5007372;28;205258;-68
2023/04/20 09:30:41;;;;;;;13.07;4.68;;;8.20;99.90;;;;;;5063296;28;20060;-68
2023/04/20 09:33:10;;;;;;;11.43;4.70;;;8.30;99.90;;;;;;4998753;28;220970;-68
2023/04/20 09:35:44;;;;;;;9.82;4.93;;;8.10;99.90;;;;;;5059028;28;20167;-68
2023/04/20 09:38:14;;;;;;;10.30;5.00;;;8.00;99.90;;;;;;5008386;28;212593;-68
2023/04/20 09:40:40;;;;;;;10.52;5.07;;;8.10;99.90;;;;;;5057522;28;20535;-68
2023/04/20 09:43:12;;;;;;;12.00;5.38;;;8.10;99.90;;;;;;4993937;28;205462;-69
2023/04/20 09:45:39;;;;;;;11.65;5.55;;;8.10;99.90;;;;;;5053228;28;20049;-67
2023/04/20 09:48:08;;;;;;;12.27;5.30;;;8.10;99.90;;;;;;5028098;28;213169;-68
2023/04/20 09:50:37;;;;;;;11.70;5.50;;;8.10;99.90;;;;;;5078440;28;20486;-68
2023/04/20 09:53:04;;;;;;;10.63;5.15;;;8.10;99.90;;;;;;5032893;28;206683;-69
2023/04/20 09:55:33;;;;;;;13.10;5.43;;;8.20;99.90;;;;;;5080307;28;20441;-68
2023/04/20 09:58:03;;;;;;;12.88;5.20;;;8.20;99.90;;;;;;5007393;28;207953;-68
2023/04/20 10:00:29;;;;;;;12.25;5.60;;;8.30;99.90;;;;;;5079201;28;20055;-69
2023/04/20 10:02:56;;;;;;;10.45;5.35;;;8.30;99.90;;;;;;5002227;28;211881;-69
2023/04/20 10:05:35;;;;;;;14.95;5.57;;;8.30;99.90;;;;;;5079344;28;20044;-68
2023/04/20 10:08:02;;;;;;;13.52;5.18;;;8.30;99.90;;;;;;5032319;28;212842;-69
2023/04/20 10:10:29;;;;;;;11.10;5.32;;;8.30;99.90;;;;;;5076574;28;20055;-69
2023/04/20 10:12:59;;;;;;;12.35;5.00;;;8.20;99.90;;;;;;5016318;28;207741;-69
2023/04/20 10:15:39;;;;;;;11.88;5.63;;;8.20;99.90;;;;;;5079343;28;20138;-69
2023/04/20 10:18:16;;;;;;;13.68;6.00;;;8.30;99.90;;;;;;5017019;28;208580;-68
2023/04/20 10:20:42;;;;;;;12.15;5.90;;;8.20;99.90;;;;;;5080435;28;20056;-69
2023/04/20 10:23:10;;;;;;;12.68;5.65;;;8.20;99.90;;;;;;5026621;28;210853;-68
2023/04/20 10:25:36;;;;;;;11.52;6.13;;;8.30;99.90;;;;;;5082618;28;20059;-69
2023/04/20 10:28:07;;;;;;;13.52;6.13;;;8.40;99.90;;;;;;5025895;28;208487;-68
2023/04/20 10:30:33;;;;;;;14.82;6.00;;;8.50;99.90;;;;;;5083064;28;20048;-69
2023/04/20 10:33:06;;;;;;;13.07;5.72;;;8.60;99.90;;;;;;5022494;28;214516;-69
2023/04/20 10:35:42;;;;;;;12.07;6.32;;;8.60;99.90;;;;;;5084279;28;20278;-69
2023/04/20 10:38:10;;;;;;;12.00;5.13;;;8.60;99.90;;;;;;5023173;28;209323;-69
2023/04/20 10:40:36;;;;;;;11.48;5.70;;;8.50;99.90;;;;;;5077835;28;20056;-70
2023/04/20 10:43:03;;;;;;;12.52;5.65;;;8.40;99.90;;;;;;5012910;28;222125;-70
2023/04/20 10:45:37;;;;;;;16.05;6.38;;;8.40;99.90;;;;;;5077296;28;20426;-69
2023/04/20 10:48:09;;;;;;;12.60;5.38;;;8.50;99.90;;;;;;4998236;28;208050;-69
2023/04/20 10:50:36;;;;;;;12.43;5.60;;;8.60;99.90;;;;;;5072974;28;20060;-68
2023/04/20 10:53:15;;;;;;;13.10;5.32;;;8.70;99.90;;;;;;5025378;28;207357;-69
2023/04/20 10:55:41;;;;;;;11.20;5.60;;;8.90;99.90;;;;;;5087109;28;20056;-69
2023/04/20 10:58:20;;;;;;;13.65;5.95;;;9.00;99.90;;;;;;5005365;28;252118;-69
2023/04/20 11:00:56;;;;;;;13.02;5.43;;;8.90;99.90;;;;;;5082387;28;20056;-69
2023/04/20 11:03:22;;;;;;;11.07;5.32;;;8.70;99.90;;;;;;5010663;28;221917;-67
2023/04/20 11:05:50;;;;;;;11.40;5.90;;;8.60;99.90;;;;;;5086449;28;20052;-67
2023/04/20 11:08:16;;;;;;;12.73;6.40;;;8.50;99.90;;;;;;5024344;28;218218;-68
2023/04/20 11:10:43;;;;;;;13.93;6.82;;;8.60;99.90;;;;;;5082488;28;20406;-68
2023/04/20 11:13:22;;;;;;;13.15;6.68;;;8.60;99.90;;;;;;5019529;28;212627;-67
2023/04/20 11:15:48;;;;;;;13.80;6.68;;;8.70;99.90;;;;;;5076806;28;20056;-69
2023/04/20 11:18:14;;;;;;;12.75;5.93;;;8.90;99.90;;;;;;5031264;28;207258;-72
2023/04/20 11:20:54;;;;;;;15.13;6.35;;;8.90;99.90;;;;;;5077695;28;20048;-70
2023/04/20 11:23:22;;;;;;;11.43;6.35;;;9.00;99.90;;;;;;4996802;28;210841;-71
2023/04/20 11:25:54;;;;;;;13.85;6.35;;;9.20;99.90;;;;;;5084352;28;20060;-69
2023/04/20 11:28:21;;;;;;;12.25;5.80;;;9.50;99.90;;;;;;5002578;28;277743;-69
2023/04/20 11:30:48;;;;;;;13.98;6.53;;;9.80;99.90;;;;;;5091669;28;20386;-70
2023/04/20 11:33:35;;;;;;;13.18;6.35;;;9.80;99.90;;;;;;5026755;28;214210;-69
2023/04/20 11:36:03;;;;;;;13.15;6.90;;;9.90;99.90;;;;;;5067116;28;206596;-70
2023/04/20 11:38:32;;;;;;;12.82;6.10;;;9.80;99.90;;;;;;5034338;28;176899;-70
2023/04/20 11:41:06;;;;;;;13.05;6.65;;;9.60;99.90;;;;;;5077726;28;20052;-69
2023/04/20 11:43:35;;;;;;;13.48;6.72;;;9.70;99.90;;;;;;5007734;28;127495;-70
2023/04/20 11:46:04;;;;;;;13.02;7.30;;;9.90;99.90;;;;;;5069275;28;230841;-68
2023/04/20 11:48:30;;;;;;;14.32;7.30;;;10.40;99.90;;;;;;5039142;28;20044;-69
2023/04/20 11:50:57;;;;;;;13.00;7.13;;;10.80;99.90;;;;;;5080743;28;20048;-70
2023/04/20 11:53:23;;;;;;;13.50;7.57;;;11.80;99.90;;;;;;5001061;28;243844;-69
2023/04/20 11:55:49;;;;;;;13.63;6.65;;;12.10;99.90;;;;;;5052606;28;20052;-69
2023/04/20 11:58:15;;;;;;;14.23;6.35;;;12.40;99.90;;;;;;5010197;28;207800;-70
2023/04/20 12:00:42;;;;;;;11.80;6.53;;;13.00;99.90;;;;;;5067225;28;20044;-70
2023/04/20 12:03:08;;;;;;;12.60;6.63;;;12.60;99.90;;;;;;4969266;28;219972;-70
2023/04/20 12:05:34;;;;;;;12.38;6.38;;;12.60;99.90;;;;;;5057054;28;20549;-70
2023/04/20 12:08:00;;;;;;;12.63;6.22;;;12.90;99.90;;;;;;5023666;28;207020;-71
2023/04/20 12:10:26;;;;;;;13.43;6.20;;;12.70;99.90;;;;;;5077970;28;20052;-69
2023/04/20 12:12:52;;;;;;;13.45;6.72;;;12.50;99.90;;;;;;5010537;28;209195;-69
2023/04/20 12:15:18;;;;;;;11.02;5.32;;;13.00;99.90;;;;;;5078487;28;20055;-69
2023/04/20 12:17:44;;;;;;;13.10;6.50;;;12.30;99.90;;;;;;5031718;28;207337;-69
2023/04/20 12:20:11;;;;;;;11.63;6.43;;;11.80;99.90;;;;;;5076646;28;20059;-70
2023/04/20 12:22:37;;;;;;;11.95;6.13;;;11.70;99.90;;;;;;5013409;28;206227;-69
2023/04/20 12:25:05;;;;;;;12.40;6.68;;;12.10;99.90;;;;;;5055325;28;20150;-69
2023/04/20 12:27:31;;;;;;;11.18;6.18;;;12.40;99.90;;;;;;4995885;28;212163;-69
2023/04/20 12:29:58;;;;;;;11.68;6.40;;;12.90;99.90;;;;;;5051369;28;20415;-69
2023/04/20 12:32:24;;;;;;;12.30;7.00;;;13.10;99.90;;;;;;4995103;28;210279;-69
2023/04/20 12:34:50;;;;;;;13.15;6.32;;;13.60;99.90;;;;;;5051489;28;20542;-69
2023/04/20 12:37:16;;;;;;;13.27;6.80;;;13.80;99.90;;;;;;4989564;28;208011;-69
2023/04/20 12:39:42;;;;;;;11.57;5.60;;;13.30;99.90;;;;;;5053187;28;20065;-69
2023/04/20 12:42:09;;;;;;;11.48;6.03;;;13.30;99.90;;;;;;4991118;28;205973;-69
2023/04/20 12:44:35;;;;;;;14.18;7.07;;;13.20;99.90;;;;;;5078733;28;20059;-68